createdAt,value
2018-09-10T00:00:21.041Z,91.70
2018-09-10T00:02:55.259Z,92.10
2018-09-10T00:05:22.802Z,91.90
2018-09-10T00:07:50.325Z,91.80
2018-09-10T00:10:17.906Z,91.90
2018-09-10T00:12:45.435Z,92.20
2018-09-10T00:15:13.243Z,92.10
2018-09-10T00:17:40.763Z,92.50
2018-09-10T00:20:08.316Z,92.60
2018-09-10T00:22:35.891Z,92.70
2018-09-10T00:25:04.023Z,92.80
2018-09-10T00:27:31.549Z,92.90
2018-09-10T00:29:59.076Z,92.90
2018-09-10T00:32:27.018Z,92.90
2018-09-10T00:34:54.649Z,93.00
2018-09-10T00:37:22.162Z,93.10
2018-09-10T00:39:56.576Z,93.10
2018-09-10T00:42:24.142Z,93.30
2018-09-10T00:44:51.693Z,93.40
2018-09-10T00:47:19.248Z,93.50
2018-09-10T00:49:46.783Z,93.60
2018-09-10T00:52:14.311Z,93.70
2018-09-10T00:54:41.838Z,93.80
2018-09-10T00:57:09.364Z,93.80
2018-09-10T00:59:36.875Z,93.90
2018-09-10T01:02:04.418Z,94.00
2018-09-10T01:04:31.960Z,94.00
2018-09-10T01:06:59.494Z,94.20
2018-09-10T01:09:26.992Z,94.40
2018-09-10T01:11:54.496Z,94.40
2018-09-10T01:14:21.991Z,94.40
2018-09-10T01:16:49.487Z,94.50
2018-09-10T01:19:16.979Z,94.60
2018-09-10T01:21:44.480Z,94.90
2018-09-10T01:24:11.971Z,95.10
2018-09-10T01:26:39.464Z,95.00
2018-09-10T01:29:06.963Z,95.00
2018-09-10T01:31:34.481Z,95.10
2018-09-10T01:34:07.905Z,95.10
2018-09-10T01:36:35.382Z,95.30
2018-09-10T01:39:04.126Z,95.40
2018-09-10T01:41:31.624Z,95.40
2018-09-10T01:43:59.139Z,95.60
2018-09-10T01:46:26.657Z,95.70
2018-09-10T01:48:54.148Z,95.80
2018-09-10T01:51:21.643Z,95.80
2018-09-10T01:53:49.126Z,95.80
2018-09-10T01:56:16.634Z,96.00
2018-09-10T01:58:44.144Z,96.10
2018-09-10T02:01:11.656Z,96.30
2018-09-10T02:03:39.143Z,96.30
2018-09-10T02:06:06.916Z,96.40
2018-09-10T02:08:34.425Z,96.40
2018-09-10T02:11:01.996Z,96.50
2018-09-10T02:13:29.523Z,96.50
2018-09-10T02:15:57.065Z,96.70
2018-09-10T02:18:24.601Z,96.80
2018-09-10T02:20:52.123Z,96.90
2018-09-10T02:23:19.655Z,97.00
2018-09-10T02:25:47.215Z,97.30
2018-09-10T02:28:14.740Z,97.40
2018-09-10T02:30:42.270Z,97.50
2018-09-10T02:33:09.817Z,97.40
2018-09-10T02:35:37.352Z,97.50
2018-09-10T02:38:05.252Z,97.50
2018-09-10T02:40:32.808Z,97.60
2018-09-10T02:43:00.573Z,97.60
2018-09-10T02:45:28.123Z,97.80
2018-09-10T02:47:55.683Z,98.10
2018-09-10T02:50:23.232Z,98.20
2018-09-10T02:52:50.975Z,98.10
2018-09-10T02:55:18.721Z,98.10
2018-09-10T02:57:46.247Z,98.40
2018-09-10T03:00:13.801Z,98.70
2018-09-10T03:02:41.658Z,98.80
2018-09-10T03:05:09.200Z,98.90
2018-09-10T03:07:36.882Z,98.80
2018-09-10T03:10:04.602Z,98.90
2018-09-10T03:12:32.100Z,99.00
2018-09-10T03:14:59.659Z,99.10
2018-09-10T03:17:27.539Z,99.10
2018-09-10T03:19:55.024Z,99.10
2018-09-10T03:22:22.532Z,99.30
2018-09-10T03:24:50.035Z,99.30
2018-09-10T03:27:17.686Z,99.30
2018-09-10T03:29:45.556Z,99.30
2018-09-10T03:32:13.051Z,99.30
2018-09-10T03:34:40.560Z,99.30
2018-09-10T03:37:08.089Z,99.40
2018-09-10T03:39:35.580Z,99.60
2018-09-10T03:42:03.087Z,99.60
2018-09-10T03:44:30.585Z,99.70
2018-09-10T03:46:58.105Z,99.80
2018-09-10T03:49:25.601Z,99.80
2018-09-10T03:51:53.083Z,99.80
2018-09-10T03:54:20.582Z,99.80
2018-09-10T03:56:48.091Z,99.90
2018-09-10T03:59:15.586Z,99.90
2018-09-10T04:01:43.091Z,99.90
2018-09-10T04:04:10.588Z,99.90
2018-09-10T04:06:38.095Z,99.90
2018-09-10T04:09:06.591Z,99.90
2018-09-10T04:11:34.361Z,99.90
2018-09-10T04:14:01.952Z,99.90
2018-09-10T04:16:29.688Z,99.90
2018-09-10T04:18:57.255Z,99.90
2018-09-10T04:21:24.832Z,99.90
2018-09-10T04:23:52.581Z,99.90
2018-09-10T04:26:20.140Z,99.90
2018-09-10T04:28:47.703Z,99.90
2018-09-10T04:31:15.252Z,99.90
2018-09-10T04:33:43.012Z,99.90
2018-09-10T04:36:10.746Z,99.90
2018-09-10T04:38:38.353Z,99.90
2018-09-10T04:41:05.900Z,99.90
2018-09-10T04:43:33.438Z,99.90
2018-09-10T04:46:01.119Z,99.90
2018-09-10T04:48:28.692Z,99.90
2018-09-10T04:50:56.222Z,99.90
2018-09-10T04:53:24.019Z,99.90
2018-09-10T04:55:51.664Z,99.90
2018-09-10T04:58:19.199Z,99.90
2018-09-10T05:00:46.753Z,99.90
2018-09-10T05:03:14.293Z,99.90
2018-09-10T05:05:41.852Z,99.90
2018-09-10T05:08:09.398Z,99.90
2018-09-10T05:10:36.945Z,99.90
2018-09-10T05:13:04.495Z,99.90
2018-09-10T05:15:32.048Z,99.90
2018-09-10T05:17:59.584Z,99.90
2018-09-10T05:20:27.125Z,99.90
2018-09-10T05:22:54.673Z,99.80
2018-09-10T05:25:22.207Z,99.80
2018-09-10T05:27:49.768Z,99.70
2018-09-10T05:30:17.299Z,99.70
2018-09-10T05:32:44.851Z,99.60
2018-09-10T05:35:12.392Z,99.50
2018-09-10T05:37:39.939Z,99.40
2018-09-10T05:40:08.570Z,99.40
2018-09-10T05:42:36.105Z,99.30
2018-09-10T05:45:04.345Z,99.20
2018-09-10T05:47:31.903Z,99.20
2018-09-10T05:49:59.444Z,99.10
2018-09-10T05:52:27.017Z,99.00
2018-09-10T05:54:54.552Z,98.80
2018-09-10T05:57:22.073Z,98.70
2018-09-10T05:59:49.607Z,98.50
2018-09-10T06:02:17.163Z,98.40
2018-09-10T06:04:44.705Z,98.20
2018-09-10T06:07:12.247Z,98.10
2018-09-10T06:09:39.751Z,97.90
2018-09-10T06:12:07.279Z,97.80
2018-09-10T06:14:34.787Z,97.50
2018-09-10T06:17:02.287Z,97.40
2018-09-10T06:19:29.801Z,97.20
2018-09-10T06:21:57.290Z,97.00
2018-09-10T06:24:24.805Z,96.80
2018-09-10T06:26:52.308Z,96.70
2018-09-10T06:29:19.814Z,96.50
2018-09-10T06:31:47.339Z,96.40
2018-09-10T06:34:14.947Z,96.20
2018-09-10T06:36:42.367Z,96.40
2018-09-10T06:39:11.348Z,95.90
2018-09-10T06:41:38.849Z,95.80
2018-09-10T06:44:06.563Z,95.50
2018-09-10T06:46:34.047Z,95.50
2018-09-10T06:49:01.543Z,95.30
2018-09-10T06:51:29.062Z,95.20
2018-09-10T06:53:57.117Z,95.10
2018-09-10T06:56:24.603Z,94.90
2018-09-10T06:58:52.099Z,94.90
2018-09-10T07:01:19.592Z,94.40
2018-09-10T07:03:47.097Z,94.20
2018-09-10T07:06:14.605Z,94.50
2018-09-10T07:08:42.114Z,94.10
2018-09-10T07:11:09.626Z,94.10
2018-09-10T07:13:37.133Z,94.00
2018-09-10T07:16:04.648Z,93.90
2018-09-10T07:18:32.144Z,93.70
2018-09-10T07:20:59.643Z,93.60
2018-09-10T07:23:27.153Z,93.40
2018-09-10T07:25:54.660Z,92.90
2018-09-10T07:28:22.166Z,92.70
2018-09-10T07:30:49.662Z,92.40
2018-09-10T07:33:17.163Z,92.10
2018-09-10T07:35:44.676Z,91.60
2018-09-10T07:38:12.363Z,91.30
2018-09-10T07:40:40.140Z,90.90
2018-09-10T07:43:07.643Z,90.60
2018-09-10T07:45:35.147Z,90.30
2018-09-10T07:48:02.650Z,90.00
2018-09-10T07:50:30.163Z,89.30
2018-09-10T07:52:57.673Z,88.50
2018-09-10T07:55:25.174Z,87.80
2018-09-10T07:57:52.654Z,87.20
2018-09-10T08:00:20.159Z,86.20
2018-09-10T08:02:47.678Z,85.00
2018-09-10T08:05:23.219Z,84.30
2018-09-10T08:07:50.877Z,83.30
2018-09-10T08:10:18.443Z,82.50
2018-09-10T08:12:46.191Z,82.10
2018-09-10T08:15:13.760Z,81.80
2018-09-10T08:17:41.300Z,79.40
2018-09-10T08:20:08.986Z,78.90
2018-09-10T08:22:36.507Z,77.00
2018-09-10T08:25:04.217Z,76.00
2018-09-10T08:27:32.073Z,74.20
2018-09-10T08:29:59.623Z,74.30
2018-09-10T08:32:27.157Z,73.90
2018-09-10T08:34:54.930Z,73.20
2018-09-10T08:37:22.467Z,71.80
2018-09-10T08:39:50.012Z,69.80
2018-09-10T08:42:17.556Z,68.30
2018-09-10T08:44:45.116Z,66.70
2018-09-10T08:47:12.670Z,64.40
2018-09-10T08:49:40.220Z,63.10
2018-09-10T08:52:07.780Z,61.70
2018-09-10T08:54:35.609Z,60.30
2018-09-10T08:57:02.868Z,58.60
2018-09-10T08:59:30.455Z,57.40
2018-09-10T09:01:58.053Z,55.30
2018-09-10T09:04:25.536Z,54.40
2018-09-10T09:06:53.092Z,53.10
2018-09-10T09:09:20.816Z,52.30
2018-09-10T09:11:48.360Z,51.50
2018-09-10T09:14:15.904Z,50.60
2018-09-10T09:16:43.464Z,49.30
2018-09-10T09:19:11.008Z,48.20
2018-09-10T09:21:38.565Z,47.20
2018-09-10T09:24:06.100Z,46.30
2018-09-10T09:26:33.651Z,45.50
2018-09-10T09:29:01.188Z,44.40
2018-09-10T09:31:28.736Z,43.70
2018-09-10T09:33:56.277Z,43.50
2018-09-10T09:36:29.489Z,42.30
2018-09-10T09:39:02.812Z,41.70
2018-09-10T09:41:36.125Z,41.00
2018-09-10T09:44:09.361Z,40.40
2018-09-10T09:46:36.891Z,38.70
2018-09-10T09:49:04.496Z,38.60
2018-09-10T09:51:32.035Z,38.10
2018-09-10T09:53:59.579Z,37.20
2018-09-10T09:56:27.136Z,36.90
2018-09-10T09:58:54.649Z,36.80
2018-09-10T10:01:27.661Z,36.80
2018-09-10T10:03:56.200Z,36.70
2018-09-10T10:06:24.486Z,36.50
2018-09-10T10:08:52.235Z,35.50
2018-09-10T10:11:19.758Z,35.60
2018-09-10T10:13:47.254Z,35.90
2018-09-10T10:16:14.804Z,36.10
2018-09-10T10:18:42.333Z,36.00
2018-09-10T10:21:09.843Z,35.80
2018-09-10T10:23:37.411Z,35.60
2018-09-10T10:26:04.995Z,35.40
2018-09-10T10:28:32.836Z,35.40
2018-09-10T10:31:00.335Z,35.10
2018-09-10T10:33:27.881Z,35.10
2018-09-10T10:35:55.423Z,35.00
2018-09-10T10:38:22.964Z,35.20
2018-09-10T10:40:50.511Z,35.40
2018-09-10T10:43:18.087Z,35.90
2018-09-10T10:45:45.623Z,34.70
2018-09-10T10:48:13.159Z,35.70
2018-09-10T10:50:40.703Z,35.40
2018-09-10T10:53:08.249Z,35.60
2018-09-10T10:55:35.787Z,35.90
2018-09-10T10:58:03.333Z,35.70
2018-09-10T11:00:30.875Z,35.20
2018-09-10T11:02:58.401Z,35.10
2018-09-10T11:05:25.940Z,35.40
2018-09-10T11:07:53.462Z,34.20
2018-09-10T11:10:21.020Z,34.20
2018-09-10T11:12:48.543Z,34.10
2018-09-10T11:15:16.363Z,34.10
2018-09-10T11:17:43.900Z,33.70
2018-09-10T11:20:11.444Z,33.20
2018-09-10T11:22:39.016Z,32.70
2018-09-10T11:25:06.672Z,32.50
2018-09-10T11:27:34.242Z,32.60
2018-09-10T11:30:01.768Z,32.60
2018-09-10T11:32:29.336Z,32.30
2018-09-10T11:34:57.165Z,32.10
2018-09-10T11:37:24.833Z,32.40
2018-09-10T11:39:52.379Z,32.80
2018-09-10T11:42:19.929Z,33.00
2018-09-10T11:44:47.444Z,33.20
2018-09-10T11:47:14.995Z,32.90
2018-09-10T11:49:42.537Z,32.80
2018-09-10T11:55:10.040Z,32.40
2018-09-10T11:57:37.567Z,32.30
2018-09-10T12:00:05.132Z,32.30
2018-09-10T12:02:32.663Z,31.40
2018-09-10T12:05:00.190Z,31.50
2018-09-10T12:07:27.719Z,31.40
2018-09-10T12:09:55.259Z,31.40
2018-09-10T12:12:22.799Z,31.20
2018-09-10T12:14:50.448Z,31.40
2018-09-10T12:17:17.994Z,31.20
2018-09-10T12:19:45.532Z,31.10
2018-09-10T12:22:13.064Z,30.30
2018-09-10T12:24:40.628Z,29.80
2018-09-10T12:27:08.173Z,29.70
2018-09-10T12:29:35.708Z,29.50
2018-09-10T12:32:03.492Z,29.40
2018-09-10T12:34:31.019Z,29.30
2018-09-10T12:36:58.551Z,29.50
2018-09-10T12:39:26.091Z,29.70
2018-09-10T12:41:53.628Z,29.70
2018-09-10T12:44:21.154Z,29.70
2018-09-10T12:46:48.696Z,30.10
2018-09-10T12:49:16.249Z,29.50
2018-09-10T12:51:43.795Z,29.10
2018-09-10T12:54:11.330Z,29.00
2018-09-10T12:56:38.879Z,29.30
2018-09-10T12:59:06.417Z,29.40
2018-09-10T13:01:33.955Z,29.30
2018-09-10T13:04:01.494Z,29.00
2018-09-10T13:06:29.044Z,28.80
2018-09-10T13:08:56.543Z,29.10
2018-09-10T13:11:24.114Z,29.00
2018-09-10T13:13:51.620Z,29.00
2018-09-10T13:16:19.139Z,29.10
2018-09-10T13:18:46.631Z,29.10
2018-09-10T13:21:14.123Z,29.10
2018-09-10T13:23:41.603Z,28.40
2018-09-10T13:26:39.160Z,28.40
2018-09-10T13:29:06.678Z,28.50
2018-09-10T13:31:34.179Z,29.00
2018-09-10T13:34:01.678Z,28.60
2018-09-10T13:36:29.240Z,28.50
2018-09-10T13:38:56.700Z,28.80
2018-09-10T13:41:24.323Z,28.20
2018-09-10T13:43:51.830Z,28.10
2018-09-10T13:46:19.827Z,28.00
2018-09-10T13:48:47.319Z,28.00
2018-09-10T13:51:14.827Z,28.00
2018-09-10T13:53:42.339Z,28.00
2018-09-10T13:56:09.835Z,27.40
2018-09-10T13:58:37.342Z,27.90
2018-09-10T14:01:14.572Z,27.90
2018-09-10T14:03:42.016Z,27.90
2018-09-10T14:06:09.518Z,28.30
2018-09-10T14:08:37.010Z,28.60
2018-09-10T14:11:04.564Z,29.10
2018-09-10T14:13:32.124Z,29.30
2018-09-10T14:16:13.098Z,29.30
2018-09-10T14:18:40.657Z,29.40
2018-09-10T14:21:08.192Z,29.40
2018-09-10T14:23:35.739Z,29.50
2018-09-10T14:26:03.374Z,29.80
2018-09-10T14:28:31.152Z,29.90
2018-09-10T14:30:58.701Z,30.00
2018-09-10T14:33:26.267Z,30.00
2018-09-10T14:35:53.812Z,29.90
2018-09-10T14:38:21.377Z,29.90
2018-09-10T14:40:49.689Z,29.90
2018-09-10T14:43:17.235Z,30.10
2018-09-10T14:45:44.775Z,30.20
2018-09-10T14:48:12.337Z,30.30
2018-09-10T14:50:39.896Z,30.70
2018-09-10T14:53:07.461Z,30.70
2018-09-10T14:55:35.009Z,30.80
2018-09-10T14:58:02.556Z,31.10
2018-09-10T15:00:30.087Z,30.90
2018-09-10T15:02:57.635Z,31.10
2018-09-10T15:05:25.173Z,31.00
2018-09-10T15:07:53.612Z,31.30
2018-09-10T15:10:25.483Z,31.50
2018-09-10T15:12:52.984Z,31.60
2018-09-10T15:15:48.404Z,31.80
2018-09-10T15:18:15.916Z,31.80
2018-09-10T15:20:43.427Z,31.70
2018-09-10T15:23:10.968Z,32.10
2018-09-10T15:25:38.501Z,32.40
2018-09-10T15:28:06.013Z,32.80
2018-09-10T15:30:33.520Z,33.10
2018-09-10T15:33:01.072Z,33.50
2018-09-10T15:35:28.580Z,33.80
2018-09-10T15:37:56.077Z,34.10
2018-09-10T15:40:23.576Z,34.40
2018-09-10T15:42:51.093Z,34.80
2018-09-10T15:45:18.684Z,35.20
2018-09-10T15:47:46.139Z,35.40
2018-09-10T15:50:13.632Z,36.00
2018-09-10T15:52:41.157Z,36.30
2018-09-10T15:55:08.669Z,36.50
2018-09-10T15:57:36.181Z,36.80
2018-09-10T16:00:03.774Z,37.40
2018-09-10T16:02:31.223Z,38.10
2018-09-10T16:04:58.729Z,38.50
2018-09-10T16:07:26.256Z,38.70
2018-09-10T16:09:53.779Z,39.70
2018-09-10T16:12:21.278Z,39.70
2018-09-10T16:14:49.643Z,40.10
2018-09-10T16:17:17.179Z,40.30
2018-09-10T16:19:44.727Z,40.60
2018-09-10T16:22:12.227Z,40.70
2018-09-10T16:24:39.737Z,40.90
2018-09-10T16:27:07.238Z,41.40
2018-09-10T16:29:34.735Z,41.70
2018-09-10T16:32:02.245Z,42.10
2018-09-10T16:34:29.742Z,42.50
2018-09-10T16:36:57.260Z,42.70
2018-09-10T16:39:24.755Z,43.20
2018-09-10T16:41:52.265Z,43.40
2018-09-10T16:44:19.766Z,43.70
2018-09-10T16:46:47.258Z,44.10
2018-09-10T16:49:14.762Z,44.20
2018-09-10T16:51:42.277Z,44.60
2018-09-10T16:54:09.863Z,44.70
2018-09-10T16:56:37.314Z,45.10
2018-09-10T16:59:04.808Z,45.40
2018-09-10T17:01:32.321Z,45.70
2018-09-10T17:03:59.853Z,46.00
2018-09-10T17:06:27.403Z,46.30
2018-09-10T17:08:54.883Z,46.60
2018-09-10T17:11:22.419Z,46.80
2018-09-10T17:13:50.122Z,47.10
2018-09-10T17:16:17.687Z,47.40
2018-09-10T17:18:45.252Z,47.70
2018-09-10T17:21:12.777Z,48.00
2018-09-10T17:23:40.365Z,48.20
2018-09-10T17:26:07.906Z,48.30
2018-09-10T17:28:35.442Z,48.50
2018-09-10T17:31:02.982Z,49.60
2018-09-10T17:33:30.528Z,49.50
2018-09-10T17:35:58.059Z,49.80
2018-09-10T17:38:25.615Z,49.90
2018-09-10T17:40:53.164Z,50.00
2018-09-10T17:43:20.700Z,50.20
2018-09-10T17:45:48.213Z,51.00
2018-09-10T17:48:15.769Z,50.50
2018-09-10T17:50:43.339Z,50.50
2018-09-10T17:53:10.942Z,50.60
2018-09-10T17:55:38.465Z,50.90
2018-09-10T17:58:06.008Z,51.00
2018-09-10T18:00:37.865Z,51.80
2018-09-10T18:03:06.640Z,51.30
2018-09-10T18:05:34.183Z,51.60
2018-09-10T18:08:01.703Z,52.00
2018-09-10T18:10:29.260Z,52.30
2018-09-10T18:12:56.796Z,52.30
2018-09-10T18:15:24.346Z,52.50
2018-09-10T18:17:51.887Z,52.70
2018-09-10T18:20:19.447Z,52.90
2018-09-10T18:22:47.008Z,52.90
2018-09-10T18:25:14.585Z,53.00
2018-09-10T18:27:42.120Z,53.30
2018-09-10T18:30:09.671Z,53.50
2018-09-10T18:32:37.207Z,53.70
2018-09-10T18:35:04.755Z,53.80
2018-09-10T18:37:32.287Z,53.70
2018-09-10T18:39:59.828Z,53.80
2018-09-10T18:42:27.372Z,54.10
2018-09-10T18:44:54.907Z,54.30
2018-09-10T18:47:22.444Z,54.50
2018-09-10T18:49:50.012Z,54.80
2018-09-10T18:52:17.593Z,54.90
2018-09-10T18:54:45.145Z,54.80
2018-09-10T18:57:12.685Z,54.90
2018-09-10T18:59:40.231Z,54.90
2018-09-10T19:02:07.767Z,54.90
2018-09-10T19:04:35.306Z,54.90
2018-09-10T19:07:02.840Z,55.70
2018-09-10T19:09:30.353Z,55.20
2018-09-10T19:11:57.864Z,55.10
2018-09-10T19:14:25.367Z,55.20
2018-09-10T19:16:52.878Z,55.30
2018-09-10T19:19:20.392Z,55.50
2018-09-10T19:21:47.909Z,55.50
2018-09-10T19:24:15.420Z,55.80
2018-09-10T19:26:42.923Z,55.70
2018-09-10T19:29:10.426Z,55.80
2018-09-10T19:31:37.919Z,55.90
2018-09-10T19:34:05.423Z,55.80
2018-09-10T19:36:32.918Z,56.00
2018-09-10T19:39:00.412Z,56.40
2018-09-10T19:41:27.956Z,56.50
2018-09-10T19:43:55.503Z,56.40
2018-09-10T19:46:23.023Z,56.30
2018-09-10T19:48:50.497Z,57.20
2018-09-10T19:51:18.044Z,56.80
2018-09-10T19:53:45.535Z,56.60
2018-09-10T19:56:13.051Z,56.30
2018-09-10T19:58:40.536Z,56.30
2018-09-10T20:04:27.881Z,57.00
2018-09-10T20:06:55.395Z,56.80
2018-09-10T20:09:22.915Z,56.50
2018-09-10T20:12:09.905Z,56.30
2018-09-10T20:14:37.422Z,56.30
2018-09-10T20:17:05.053Z,56.20
2018-09-10T20:19:32.565Z,56.30
2018-09-10T20:22:00.132Z,56.30
2018-09-10T20:24:27.607Z,56.30
2018-09-10T20:26:55.114Z,56.30
2018-09-10T20:29:22.645Z,56.40
2018-09-10T20:31:50.153Z,56.40
2018-09-10T20:34:17.648Z,56.40
2018-09-10T20:36:45.151Z,56.40
2018-09-10T20:39:13.304Z,56.30
2018-09-10T20:41:40.819Z,56.30
2018-09-10T20:44:08.615Z,56.40
2018-09-10T20:46:36.296Z,57.10
2018-09-10T20:49:03.959Z,57.70
2018-09-10T20:51:31.490Z,57.90
2018-09-10T20:53:58.984Z,57.80
2018-09-10T20:56:26.483Z,58.00
2018-09-10T20:58:53.972Z,58.20
2018-09-10T21:01:21.479Z,58.50
2018-09-10T21:03:49.011Z,58.60
2018-09-10T21:06:17.145Z,58.70
2018-09-10T21:08:44.646Z,58.80
2018-09-10T21:11:12.220Z,58.60
2018-09-10T21:13:39.779Z,58.70
2018-09-10T21:16:07.344Z,58.60
2018-09-10T21:18:34.883Z,58.60
2018-09-10T21:21:02.448Z,58.70
2018-09-10T21:23:30.004Z,58.80
2018-09-10T21:25:57.562Z,59.10
2018-09-10T21:28:25.316Z,59.40
2018-09-10T21:30:52.871Z,59.80
2018-09-10T21:33:20.418Z,59.80
2018-09-10T21:35:47.942Z,60.00
2018-09-10T21:38:15.503Z,60.20
2018-09-10T21:40:43.072Z,60.60
2018-09-10T21:43:10.607Z,60.70
2018-09-10T21:45:38.125Z,61.00
2018-09-10T21:48:05.687Z,61.30
2018-09-10T21:50:33.272Z,61.50
2018-09-10T21:53:00.827Z,61.80
2018-09-10T21:55:28.385Z,62.10
2018-09-10T21:57:55.955Z,62.50
2018-09-10T22:00:23.532Z,63.00
2018-09-10T22:02:51.075Z,63.00
2018-09-10T22:05:18.631Z,63.30
2018-09-10T22:07:46.174Z,63.60
2018-09-10T22:10:13.799Z,63.80
2018-09-10T22:12:41.279Z,64.10
2018-09-10T22:15:08.828Z,64.40
2018-09-10T22:17:36.368Z,64.80
2018-09-10T22:20:03.967Z,65.00
2018-09-10T22:22:31.544Z,65.20
2018-09-10T22:24:59.080Z,65.30
2018-09-10T22:27:26.644Z,65.60
2018-09-10T22:29:54.208Z,65.60
2018-09-10T22:32:21.742Z,65.80
2018-09-10T22:34:49.282Z,66.00
2018-09-10T22:37:16.824Z,66.20
2018-09-10T22:39:44.368Z,66.30
2018-09-10T22:42:11.919Z,66.40
2018-09-10T22:44:39.452Z,66.60
2018-09-10T22:47:07.012Z,67.70
2018-09-10T22:49:34.580Z,67.20
2018-09-10T22:52:02.126Z,67.60
2018-09-10T22:54:29.685Z,67.80
2018-09-10T22:56:57.224Z,67.80
2018-09-10T22:59:24.784Z,67.80
2018-09-10T23:01:52.344Z,68.00
2018-09-10T23:04:19.867Z,68.10
2018-09-10T23:06:47.413Z,68.30
2018-09-10T23:09:14.921Z,68.50
2018-09-10T23:11:42.425Z,68.10
2018-09-10T23:14:09.918Z,68.60
2018-09-10T23:16:37.539Z,68.70
2018-09-10T23:19:05.020Z,68.70
2018-09-10T23:21:32.532Z,68.60
2018-09-10T23:24:00.044Z,68.90
2018-09-10T23:26:27.561Z,68.90
2018-09-10T23:28:55.054Z,69.10
2018-09-10T23:31:22.579Z,69.40
2018-09-10T23:33:50.079Z,69.60
2018-09-10T23:36:17.583Z,69.70
2018-09-10T23:38:45.093Z,69.80
2018-09-10T23:41:12.621Z,69.90
2018-09-10T23:43:40.116Z,70.00
2018-09-10T23:46:07.631Z,69.90
2018-09-10T23:48:35.124Z,70.00
2018-09-10T23:51:02.654Z,70.20
2018-09-10T23:53:30.160Z,71.10
2018-09-10T23:55:57.658Z,70.40
2018-09-10T23:58:25.169Z,70.40
